createdAt,value
2023-05-04T00:01:12.329Z,17.40
2023-05-04T00:03:41.224Z,20.00
2023-05-04T00:06:10.167Z,14.40
2023-05-04T00:08:39.081Z,18.80
2023-05-04T00:11:07.749Z,16.60
2023-05-04T00:13:36.436Z,20.00
2023-05-04T00:16:08.515Z,18.80
2023-05-04T00:18:39.560Z,21.60
2023-05-04T00:21:08.841Z,18.50
2023-05-04T00:23:37.736Z,20.70
2023-05-04T00:26:06.833Z,18.20
2023-05-04T00:28:35.419Z,16.30
2023-05-04T00:31:04.315Z,19.90
2023-05-04T00:33:33.095Z,18.20
2023-05-04T00:36:04.500Z,17.40
2023-05-04T00:38:47.573Z,19.10
2023-05-04T00:41:18.941Z,21.10
2023-05-04T00:43:48.291Z,21.80
2023-05-04T00:46:18.009Z,18.40
2023-05-04T00:48:48.791Z,18.70
2023-05-04T00:51:21.135Z,19.80
2023-05-04T00:53:50.323Z,21.20
2023-05-04T00:56:19.217Z,18.70
2023-05-04T00:58:49.241Z,21.30
2023-05-04T01:01:18.383Z,18.30
2023-05-04T01:03:47.244Z,22.10
2023-05-04T01:06:23.898Z,18.20
2023-05-04T01:08:59.653Z,17.70
2023-05-04T01:11:38.059Z,18.00
2023-05-04T01:14:07.464Z,17.80
2023-05-04T01:16:36.841Z,21.10
2023-05-04T01:19:05.758Z,20.50
2023-05-04T01:21:36.061Z,19.60
2023-05-04T01:24:06.385Z,20.90
2023-05-04T01:26:40.375Z,19.00
2023-05-04T01:29:19.152Z,23.10
2023-05-04T01:31:47.905Z,21.20
2023-05-04T01:34:17.218Z,20.10
2023-05-04T01:36:46.517Z,18.70
2023-05-04T01:39:15.237Z,22.00
2023-05-04T01:41:44.180Z,17.40
2023-05-04T01:44:13.084Z,18.30
2023-05-04T01:46:42.800Z,17.70
2023-05-04T01:49:11.688Z,21.30
2023-05-04T01:51:40.593Z,20.70
2023-05-04T01:54:09.271Z,18.70
2023-05-04T01:56:39.598Z,21.70
2023-05-04T01:59:08.573Z,21.70
2023-05-04T02:01:37.476Z,24.00
2023-05-04T02:04:06.381Z,20.50
2023-05-04T02:06:35.347Z,21.60
2023-05-04T02:09:04.645Z,19.60
2023-05-04T02:11:33.447Z,18.90
2023-05-04T02:14:02.336Z,19.30
2023-05-04T02:16:32.374Z,20.10
2023-05-04T02:19:01.324Z,18.90
2023-05-04T02:21:31.099Z,18.70
2023-05-04T02:23:59.919Z,20.10
2023-05-04T02:26:28.533Z,19.10
2023-05-04T02:28:57.407Z,21.30
2023-05-04T02:31:26.207Z,24.70
2023-05-04T02:33:55.488Z,20.40
2023-05-04T02:36:24.073Z,19.60
2023-05-04T02:38:52.973Z,21.70
2023-05-04T02:41:21.999Z,20.40
2023-05-04T02:43:50.748Z,21.20
2023-05-04T02:46:23.740Z,19.10
2023-05-04T02:48:52.518Z,19.20
2023-05-04T02:51:21.340Z,22.10
2023-05-04T02:53:50.513Z,20.70
2023-05-04T02:56:19.394Z,21.80
2023-05-04T02:58:48.201Z,17.40
2023-05-04T03:01:18.265Z,18.20
2023-05-04T03:03:47.022Z,20.70
2023-05-04T03:06:15.881Z,21.60
2023-05-04T03:08:45.082Z,22.40
2023-05-04T03:11:14.588Z,19.70
2023-05-04T03:13:43.266Z,20.10
2023-05-04T03:16:13.110Z,21.00
2023-05-04T03:21:29.303Z,20.30
2023-05-04T03:23:59.409Z,21.70
2023-05-04T03:26:29.130Z,23.50
2023-05-04T03:28:58.027Z,20.30
2023-05-04T03:31:27.856Z,22.20
2023-05-04T03:33:57.737Z,20.80
2023-05-04T03:36:26.761Z,21.50
2023-05-04T03:38:57.062Z,18.20
2023-05-04T03:41:26.157Z,19.10
2023-05-04T03:43:54.949Z,18.90
2023-05-04T03:46:23.991Z,18.50
2023-05-04T03:48:52.631Z,22.30
2023-05-04T03:51:22.020Z,19.10
2023-05-04T03:53:50.712Z,20.00
2023-05-04T03:56:19.922Z,19.20
2023-05-04T03:58:48.904Z,17.70
2023-05-04T04:01:20.446Z,16.20
2023-05-04T04:03:49.385Z,18.60
2023-05-04T04:06:19.863Z,19.40
2023-05-04T04:08:48.442Z,21.90
2023-05-04T04:11:17.449Z,19.90
2023-05-04T04:13:46.251Z,23.60
2023-05-04T04:16:15.468Z,21.30
2023-05-04T04:18:44.432Z,24.20
2023-05-04T04:21:13.651Z,22.70
2023-05-04T04:23:42.405Z,20.80
2023-05-04T04:26:12.898Z,21.60
2023-05-04T04:28:41.840Z,22.20
2023-05-04T04:31:11.088Z,20.30
2023-05-04T04:33:39.938Z,21.30
2023-05-04T04:36:09.828Z,20.30
2023-05-04T04:38:40.080Z,18.50
2023-05-04T04:41:08.954Z,22.40
2023-05-04T04:43:37.829Z,24.50
2023-05-04T04:46:08.692Z,25.60
2023-05-04T04:48:37.370Z,21.90
2023-05-04T04:51:11.920Z,23.10
2023-05-04T04:53:40.872Z,26.00
2023-05-04T04:56:22.045Z,32.00
2023-05-04T04:58:51.436Z,29.60
2023-05-04T05:01:20.292Z,26.60
2023-05-04T05:03:50.707Z,29.30
2023-05-04T05:06:19.960Z,25.50
2023-05-04T05:08:48.654Z,23.30
2023-05-04T05:11:18.014Z,24.80
2023-05-04T05:13:46.635Z,24.60
2023-05-04T05:16:16.413Z,25.80
2023-05-04T05:18:45.470Z,26.10
2023-05-04T05:21:14.972Z,24.30
2023-05-04T05:23:43.744Z,24.30
2023-05-04T05:26:12.527Z,24.70
2023-05-04T05:28:41.116Z,25.60
2023-05-04T05:31:10.117Z,26.40
2023-05-04T05:33:39.610Z,24.80
2023-05-04T05:36:08.931Z,23.40
2023-05-04T05:38:38.296Z,21.40
2023-05-04T05:41:07.090Z,25.50
2023-05-04T05:43:37.941Z,23.20
2023-05-04T05:46:07.768Z,23.30
2023-05-04T05:48:36.542Z,21.00
2023-05-04T05:51:06.141Z,22.10
2023-05-04T05:53:34.929Z,23.60
2023-05-04T05:56:03.818Z,24.10
2023-05-04T05:58:32.891Z,21.40
2023-05-04T06:01:02.514Z,23.00
2023-05-04T06:03:31.315Z,21.30
2023-05-04T06:06:00.672Z,20.90
2023-05-04T06:08:29.504Z,21.60
2023-05-04T06:10:58.481Z,19.40
2023-05-04T06:13:27.273Z,20.20
2023-05-04T06:15:57.247Z,19.20
2023-05-04T06:18:26.073Z,20.20
2023-05-04T06:21:01.023Z,21.20
2023-05-04T06:23:30.910Z,18.50
2023-05-04T06:25:59.696Z,18.40
2023-05-04T06:28:28.619Z,18.70
2023-05-04T06:30:58.102Z,18.30
2023-05-04T06:33:27.703Z,16.00
2023-05-04T06:35:56.626Z,18.10
2023-05-04T06:38:25.490Z,16.40
2023-05-04T06:40:54.268Z,15.20
2023-05-04T06:43:25.891Z,15.60
2023-05-04T06:45:54.973Z,16.00
2023-05-04T06:48:24.628Z,14.30
2023-05-04T06:50:54.148Z,13.50
2023-05-04T06:53:23.140Z,16.80
2023-05-04T06:55:52.344Z,12.60
2023-05-04T06:58:22.355Z,13.70
2023-05-04T07:00:52.911Z,13.90
2023-05-04T07:03:21.619Z,12.70
2023-05-04T07:05:51.698Z,15.00
2023-05-04T07:08:20.580Z,12.60
2023-05-04T07:10:49.903Z,13.60
2023-05-04T07:13:18.777Z,12.80
2023-05-04T07:15:47.757Z,14.90
2023-05-04T07:18:16.429Z,13.20
2023-05-04T07:20:45.429Z,11.30
2023-05-04T07:23:14.230Z,14.00
2023-05-04T07:25:44.328Z,14.50
2023-05-04T07:28:13.133Z,12.40
2023-05-04T07:30:41.928Z,12.70
2023-05-04T07:33:11.561Z,13.10
2023-05-04T07:35:40.414Z,11.00
2023-05-04T07:38:09.179Z,11.60
2023-05-04T07:40:37.990Z,12.40
2023-05-04T07:43:06.977Z,10.80
2023-05-04T07:45:35.573Z,12.20
2023-05-04T07:48:05.489Z,9.00
2023-05-04T07:50:34.896Z,10.10
2023-05-04T07:53:03.873Z,10.70
2023-05-04T07:55:32.645Z,10.20
2023-05-04T07:58:01.858Z,12.50
2023-05-04T08:00:30.742Z,9.30
2023-05-04T08:02:59.350Z,12.20
2023-05-04T08:05:28.114Z,8.80
2023-05-04T08:07:56.792Z,7.90
2023-05-04T08:10:26.506Z,9.10
2023-05-04T08:12:55.828Z,11.10
2023-05-04T08:15:24.492Z,10.50
2023-05-04T08:17:55.249Z,8.60
2023-05-04T08:20:24.247Z,8.00
2023-05-04T08:22:53.826Z,8.60
2023-05-04T08:25:25.899Z,10.00
2023-05-04T08:27:54.597Z,9.50
2023-05-04T08:30:23.929Z,10.30
2023-05-04T08:32:55.884Z,8.90
2023-05-04T08:35:28.136Z,7.10
2023-05-04T08:37:56.899Z,8.10
2023-05-04T08:40:26.025Z,8.30
2023-05-04T08:42:54.885Z,7.40
2023-05-04T08:45:24.477Z,7.00
2023-05-04T08:47:54.221Z,7.20
2023-05-04T08:50:23.337Z,9.30
2023-05-04T08:52:52.801Z,8.30
2023-05-04T08:55:21.803Z,8.00
2023-05-04T08:57:51.363Z,8.80
2023-05-04T09:00:21.130Z,8.50
2023-05-04T09:02:51.796Z,7.10
2023-05-04T09:05:22.039Z,7.80
2023-05-04T09:07:53.029Z,8.30
2023-05-04T09:10:22.484Z,8.50
2023-05-04T09:12:54.193Z,7.80
2023-05-04T09:15:24.583Z,7.80
2023-05-04T09:18:02.811Z,7.40
2023-05-04T09:20:32.251Z,8.90
2023-05-04T09:23:08.484Z,8.10
2023-05-04T09:25:51.270Z,8.30
2023-05-04T09:28:21.990Z,6.60
2023-05-04T09:30:50.834Z,7.60
2023-05-04T09:33:27.578Z,9.30
2023-05-04T09:35:57.641Z,6.90
2023-05-04T09:38:27.223Z,7.90
2023-05-04T09:40:57.019Z,8.80
2023-05-04T09:43:25.718Z,8.30
2023-05-04T09:45:54.923Z,8.40
2023-05-04T09:48:27.227Z,7.50
2023-05-04T09:51:00.886Z,7.70
2023-05-04T09:53:31.421Z,7.30
2023-05-04T09:56:02.523Z,7.70
2023-05-04T09:58:32.785Z,9.40
2023-05-04T10:01:02.038Z,9.00
2023-05-04T10:03:31.796Z,9.10
2023-05-04T10:06:01.279Z,9.20
2023-05-04T10:08:30.887Z,10.00
2023-05-04T10:10:59.467Z,7.70
2023-05-04T10:13:28.552Z,7.30
2023-05-04T10:16:09.953Z,9.90
2023-05-04T10:18:47.027Z,8.30
2023-05-04T10:21:21.558Z,8.40
2023-05-04T10:24:38.098Z,9.60
2023-05-04T10:27:13.198Z,7.20
2023-05-04T10:29:42.701Z,8.80
2023-05-04T10:32:21.881Z,10.10
2023-05-04T10:34:51.537Z,8.80
2023-05-04T10:37:22.272Z,9.00
2023-05-04T10:39:55.068Z,8.10
2023-05-04T10:42:23.731Z,8.90
2023-05-04T10:44:56.634Z,9.30
2023-05-04T10:47:36.069Z,11.00
2023-05-04T10:50:06.717Z,8.10
2023-05-04T10:52:49.272Z,8.10
2023-05-04T10:55:18.682Z,9.70
2023-05-04T10:57:56.216Z,10.10
2023-05-04T11:00:37.096Z,9.10
2023-05-04T11:03:08.195Z,11.10
2023-05-04T11:05:55.244Z,7.70
2023-05-04T11:08:25.893Z,8.50
2023-05-04T11:11:03.333Z,8.20
2023-05-04T11:13:34.852Z,8.10
2023-05-04T11:16:04.152Z,9.00
2023-05-04T11:18:41.507Z,8.20
2023-05-04T11:21:10.820Z,8.50
2023-05-04T11:23:39.904Z,7.80
2023-05-04T11:26:09.941Z,7.80
2023-05-04T11:28:39.309Z,8.10
2023-05-04T11:31:19.757Z,8.30
2023-05-04T11:33:51.955Z,8.80
2023-05-04T11:36:21.578Z,7.90
2023-05-04T11:38:50.954Z,10.30
2023-05-04T11:41:20.335Z,7.90
2023-05-04T11:43:49.027Z,8.80
2023-05-04T11:46:18.774Z,8.90
2023-05-04T11:48:48.050Z,8.40
2023-05-04T11:51:17.035Z,7.70
2023-05-04T11:53:45.810Z,7.30
2023-05-04T11:56:14.305Z,8.20
2023-05-04T11:58:43.217Z,8.80
2023-05-04T12:01:12.216Z,9.50
2023-05-04T12:03:52.418Z,8.40
2023-05-04T12:06:33.813Z,8.00
2023-05-04T12:09:06.115Z,8.30
2023-05-04T12:11:36.098Z,7.60
2023-05-04T12:14:17.814Z,8.10
2023-05-04T12:16:58.192Z,8.90
2023-05-04T12:19:27.666Z,8.50
2023-05-04T12:21:58.997Z,7.00
2023-05-04T12:24:28.419Z,8.90
2023-05-04T12:26:58.139Z,13.40
2023-05-04T12:29:26.912Z,9.50
2023-05-04T12:31:55.713Z,11.70
2023-05-04T12:34:24.786Z,9.10
2023-05-04T12:36:53.793Z,6.70
2023-05-04T12:39:23.285Z,8.80
2023-05-04T12:41:51.885Z,9.20
2023-05-04T12:44:20.761Z,7.40
2023-05-04T12:46:50.606Z,10.10
2023-05-04T12:49:19.868Z,12.30
2023-05-04T12:51:49.066Z,8.30
2023-05-04T12:54:18.074Z,10.30
2023-05-04T12:56:47.176Z,8.40
2023-05-04T12:59:16.475Z,9.80
2023-05-04T13:01:46.582Z,7.90
2023-05-04T13:04:16.648Z,8.00
2023-05-04T13:06:48.210Z,8.80
2023-05-04T13:09:17.764Z,7.80
2023-05-04T13:11:53.106Z,7.50
2023-05-04T13:14:22.823Z,8.10
2023-05-04T13:16:55.854Z,7.80
2023-05-04T13:19:24.792Z,7.40
2023-05-04T13:21:54.024Z,7.20
2023-05-04T13:24:23.287Z,7.80
2023-05-04T13:26:54.440Z,8.10
2023-05-04T13:29:23.326Z,8.90
2023-05-04T13:31:52.334Z,9.10
2023-05-04T13:34:21.096Z,7.90
2023-05-04T13:36:49.890Z,7.80
2023-05-04T13:39:22.948Z,7.40
2023-05-04T13:41:51.764Z,7.90
2023-05-04T13:44:21.685Z,8.70
2023-05-04T13:46:51.227Z,6.70
2023-05-04T13:49:19.980Z,7.00
2023-05-04T13:51:48.759Z,10.90
2023-05-04T13:54:17.710Z,6.70
2023-05-04T13:56:46.549Z,8.50
2023-05-04T13:59:15.634Z,7.20
2023-05-04T14:01:44.542Z,7.60
2023-05-04T14:04:13.439Z,8.70
2023-05-04T14:06:43.353Z,7.30
2023-05-04T14:09:14.123Z,7.40
2023-05-04T14:11:43.168Z,8.20
2023-05-04T14:14:12.158Z,8.20
2023-05-04T14:16:41.272Z,7.70
2023-05-04T14:19:11.367Z,8.00
2023-05-04T14:21:40.147Z,8.00
2023-05-04T14:24:09.309Z,8.40
2023-05-04T14:26:38.445Z,7.30
2023-05-04T14:29:07.436Z,10.00
2023-05-04T14:31:36.059Z,9.50
2023-05-04T14:34:07.369Z,8.60
2023-05-04T14:36:37.879Z,8.20
2023-05-04T14:39:06.920Z,7.50
2023-05-04T14:41:38.853Z,8.10
2023-05-04T14:44:07.773Z,8.50
2023-05-04T14:46:36.897Z,8.50
2023-05-04T14:49:07.935Z,7.50
2023-05-04T14:51:40.214Z,6.90
2023-05-04T14:54:09.756Z,8.00
2023-05-04T14:56:38.683Z,7.70
2023-05-04T14:59:07.859Z,8.30
2023-05-04T15:01:37.769Z,7.90
2023-05-04T15:04:07.280Z,7.50
2023-05-04T15:06:36.676Z,6.50
2023-05-04T15:09:05.767Z,8.40
2023-05-04T15:11:35.483Z,7.70
2023-05-04T15:14:04.492Z,7.60
2023-05-04T15:16:34.108Z,6.90
2023-05-04T15:19:03.062Z,6.50
2023-05-04T15:21:32.377Z,6.50
2023-05-04T15:24:02.139Z,7.20
2023-05-04T15:26:31.683Z,7.70
2023-05-04T15:29:01.395Z,7.90
2023-05-04T15:31:30.332Z,7.30
2023-05-04T15:34:01.552Z,7.50
2023-05-04T15:36:32.224Z,7.70
2023-05-04T15:39:01.380Z,7.30
2023-05-04T15:41:31.349Z,8.60
2023-05-04T15:44:00.465Z,7.10
2023-05-04T15:46:29.821Z,7.10
2023-05-04T15:48:59.474Z,6.90
2023-05-04T15:51:30.095Z,7.60
2023-05-04T15:53:59.516Z,7.30
2023-05-04T15:56:28.626Z,8.10
2023-05-04T15:58:57.826Z,6.60
2023-05-04T16:01:27.328Z,8.20
2023-05-04T16:03:58.825Z,7.30
2023-05-04T16:06:27.960Z,8.40
2023-05-04T16:08:57.249Z,7.10
2023-05-04T16:11:27.283Z,7.80
2023-05-04T16:13:56.368Z,7.90
2023-05-04T16:16:25.777Z,7.90
2023-05-04T16:18:54.951Z,7.30
2023-05-04T16:21:24.560Z,9.20
2023-05-04T16:23:53.273Z,8.40
2023-05-04T16:26:22.853Z,7.00
2023-05-04T16:28:51.916Z,6.30
2023-05-04T16:31:21.906Z,7.10
2023-05-04T16:33:50.965Z,8.50
2023-05-04T16:36:20.395Z,6.70
2023-05-04T16:38:49.819Z,6.80
2023-05-04T16:41:19.330Z,8.50
2023-05-04T16:43:49.708Z,6.40
2023-05-04T16:46:18.820Z,7.00
2023-05-04T16:48:50.137Z,7.10
2023-05-04T16:51:19.418Z,6.30
2023-05-04T16:53:50.094Z,7.20
2023-05-04T16:56:19.913Z,7.50
2023-05-04T16:58:49.030Z,7.40
2023-05-04T17:01:19.186Z,6.50
2023-05-04T17:03:48.271Z,6.60
2023-05-04T17:06:18.444Z,7.20
2023-05-04T17:08:49.544Z,7.40
2023-05-04T17:11:18.602Z,7.20
2023-05-04T17:13:47.762Z,10.80
2023-05-04T17:16:16.709Z,7.10
2023-05-04T17:18:46.703Z,7.40
2023-05-04T17:21:15.975Z,8.50
2023-05-04T17:23:44.854Z,7.60
2023-05-04T17:26:13.533Z,8.60
2023-05-04T17:28:42.434Z,8.40
2023-05-04T17:31:13.022Z,7.80
2023-05-04T17:33:42.070Z,6.80
2023-05-04T17:36:12.795Z,8.20
2023-05-04T17:38:41.794Z,9.90
2023-05-04T17:41:12.152Z,7.60
2023-05-04T17:43:41.212Z,8.80
2023-05-04T17:46:11.623Z,9.80
2023-05-04T17:48:43.591Z,6.90
2023-05-04T17:51:15.075Z,8.50
2023-05-04T17:53:44.064Z,8.60
2023-05-04T17:56:14.326Z,9.90
2023-05-04T17:58:44.266Z,8.20
2023-05-04T18:01:13.202Z,8.90
2023-05-04T18:03:42.550Z,8.70
2023-05-04T18:06:11.665Z,11.50
2023-05-04T18:08:42.961Z,9.70
2023-05-04T18:11:14.429Z,11.20
2023-05-04T18:13:43.251Z,9.30
2023-05-04T18:16:13.774Z,9.90
2023-05-04T18:18:43.077Z,8.70
2023-05-04T18:21:15.089Z,11.20
2023-05-04T18:23:46.861Z,13.70
2023-05-04T18:26:20.888Z,12.70
2023-05-04T18:28:50.918Z,10.30
2023-05-04T18:31:21.344Z,9.10
2023-05-04T18:33:50.364Z,11.40
2023-05-04T18:36:26.272Z,10.60
2023-05-04T18:38:59.689Z,8.40
2023-05-04T18:41:31.072Z,11.20
2023-05-04T18:44:02.651Z,10.90
2023-05-04T18:46:34.346Z,10.60
2023-05-04T18:49:03.352Z,9.10
2023-05-04T18:51:37.290Z,9.10
2023-05-04T18:54:07.596Z,10.60
2023-05-04T18:56:39.039Z,9.50
2023-05-04T18:59:09.004Z,7.80
2023-05-04T19:01:42.212Z,8.40
2023-05-04T19:04:14.034Z,9.30
2023-05-04T19:06:43.201Z,9.40
2023-05-04T19:09:14.827Z,7.60
2023-05-04T19:11:45.208Z,9.80
2023-05-04T19:14:15.481Z,8.20
2023-05-04T19:16:44.282Z,8.30
2023-05-04T19:19:13.697Z,9.90
2023-05-04T19:21:43.399Z,8.80
2023-05-04T19:24:12.309Z,7.50
2023-05-04T19:26:42.100Z,9.00
2023-05-04T19:29:11.395Z,8.40
2023-05-04T19:31:43.493Z,10.30
2023-05-04T19:34:17.600Z,8.40
2023-05-04T19:36:51.036Z,9.40
2023-05-04T19:39:21.309Z,9.80
2023-05-04T19:41:51.766Z,9.90
2023-05-04T19:44:21.641Z,10.60
2023-05-04T19:46:51.989Z,11.10
2023-05-04T19:49:22.947Z,10.60
2023-05-04T19:51:56.294Z,10.40
2023-05-04T19:54:28.873Z,13.20
2023-05-04T19:57:11.760Z,14.00
2023-05-04T19:59:44.780Z,10.50
2023-05-04T20:02:18.560Z,9.80
2023-05-04T20:04:48.301Z,12.20
2023-05-04T20:07:17.699Z,11.60
2023-05-04T20:09:48.697Z,10.30
2023-05-04T20:12:20.832Z,12.70
2023-05-04T20:14:53.473Z,11.40
2023-05-04T20:17:26.427Z,10.30
2023-05-04T20:19:55.652Z,16.80
2023-05-04T20:22:25.389Z,11.20
2023-05-04T20:24:54.626Z,16.00
2023-05-04T20:27:23.658Z,14.50
2023-05-04T20:29:52.788Z,11.20
2023-05-04T20:32:23.705Z,12.20
2023-05-04T20:34:52.489Z,13.20
2023-05-04T20:37:21.279Z,10.90
2023-05-04T20:39:55.111Z,12.60
2023-05-04T20:42:24.380Z,15.00
2023-05-04T20:44:53.273Z,12.60
2023-05-04T20:47:22.799Z,13.40
2023-05-04T20:49:52.799Z,15.40
2023-05-04T20:52:22.400Z,12.50
2023-05-04T20:54:51.703Z,12.60
2023-05-04T20:57:20.459Z,13.60
2023-05-04T20:59:50.018Z,12.40
2023-05-04T21:02:19.988Z,14.20
2023-05-04T21:04:49.202Z,14.10
2023-05-04T21:07:18.364Z,14.70
2023-05-04T21:09:48.423Z,13.10
2023-05-04T21:12:18.057Z,18.90
2023-05-04T21:14:47.523Z,16.30
2023-05-04T21:17:16.413Z,18.20
2023-05-04T21:19:46.928Z,16.10
2023-05-04T21:22:18.010Z,14.10
2023-05-04T21:24:47.818Z,15.50
2023-05-04T21:27:16.597Z,16.00
2023-05-04T21:29:45.368Z,15.50
2023-05-04T21:32:16.374Z,14.80
2023-05-04T21:34:45.044Z,14.90
2023-05-04T21:37:13.800Z,17.00
2023-05-04T21:39:44.114Z,12.40
2023-05-04T21:42:13.315Z,14.70
2023-05-04T21:44:43.536Z,14.20
2023-05-04T21:47:12.940Z,13.30
2023-05-04T21:49:41.938Z,15.30
2023-05-04T21:52:10.913Z,15.60
2023-05-04T21:54:40.830Z,22.40
2023-05-04T21:57:09.634Z,23.20
2023-05-04T21:59:38.991Z,16.90
2023-05-04T22:02:07.610Z,15.40
2023-05-04T22:04:38.065Z,15.20
2023-05-04T22:07:06.915Z,18.90
2023-05-04T22:09:35.955Z,16.40
2023-05-04T22:12:06.025Z,15.00
2023-05-04T22:14:34.825Z,13.90
2023-05-04T22:17:05.529Z,15.40
2023-05-04T22:19:37.112Z,15.50
2023-05-04T22:22:06.309Z,14.50
2023-05-04T22:24:35.098Z,16.00
2023-05-04T22:27:04.317Z,14.90
2023-05-04T22:29:35.868Z,15.20
2023-05-04T22:32:04.745Z,16.70
2023-05-04T22:34:33.421Z,15.10
2023-05-04T22:37:03.735Z,13.50
2023-05-04T22:39:33.604Z,14.60
2023-05-04T22:42:03.602Z,16.50
2023-05-04T22:44:34.416Z,15.00
2023-05-04T22:47:03.415Z,15.10
2023-05-04T22:49:33.768Z,14.70
2023-05-04T22:52:03.753Z,13.00
2023-05-04T22:54:32.772Z,12.20
2023-05-04T22:57:02.658Z,14.70
2023-05-04T22:59:32.156Z,18.90
2023-05-04T23:02:01.277Z,17.20
2023-05-04T23:04:30.742Z,17.00
2023-05-04T23:06:59.539Z,17.50
2023-05-04T23:09:28.333Z,17.40
2023-05-04T23:11:57.030Z,19.50
2023-05-04T23:14:25.690Z,17.90
2023-05-04T23:16:54.599Z,15.90
2023-05-04T23:19:23.395Z,18.50
2023-05-04T23:21:52.412Z,16.70
2023-05-04T23:24:21.477Z,17.90
2023-05-04T23:26:52.798Z,19.30
2023-05-04T23:29:21.921Z,18.90
2023-05-04T23:31:50.614Z,17.00
2023-05-04T23:34:19.693Z,17.10
2023-05-04T23:36:49.634Z,19.70
2023-05-04T23:39:18.081Z,17.30
2023-05-04T23:41:49.699Z,18.10
2023-05-04T23:44:18.750Z,18.10
2023-05-04T23:46:47.415Z,16.20
2023-05-04T23:49:17.064Z,21.60
2023-05-04T23:51:45.748Z,19.80
2023-05-04T23:54:15.043Z,19.10
2023-05-04T23:56:43.796Z,18.10
2023-05-04T23:59:12.790Z,19.40
